sensor_id;sensor_type;location;lat;lon;timestamp;P1;durP1;ratioP1;P2;durP2;ratioP2
18610;SDS011;9435;52.122;5.502;2023-03-01T00:02:19;20.08;;;9.35;;
18610;SDS011;9435;52.122;5.502;2023-03-01T00:04:47;19.58;;;8.98;;
18610;SDS011;9435;52.122;5.502;2023-03-01T00:07:14;17.90;;;8.98;;
18610;SDS011;9435;52.122;5.502;2023-03-01T00:09:41;20.73;;;9.43;;
18610;SDS011;9435;52.122;5.502;2023-03-01T00:12:12;19.67;;;9.73;;
18610;SDS011;9435;52.122;5.502;2023-03-01T00:14:40;20.88;;;10.02;;
18610;SDS011;9435;52.122;5.502;2023-03-01T00:17:07;20.13;;;9.18;;
18610;SDS011;9435;52.122;5.502;2023-03-01T00:19:34;18.60;;;9.13;;
18610;SDS011;9435;52.122;5.502;2023-03-01T00:22:01;22.48;;;10.20;;
18610;SDS011;9435;52.122;5.502;2023-03-01T00:24:29;22.27;;;11.02;;
18610;SDS011;9435;52.122;5.502;2023-03-01T00:26:56;23.17;;;10.25;;
18610;SDS011;9435;52.122;5.502;2023-03-01T00:29:24;19.98;;;9.82;;
18610;SDS011;9435;52.122;5.502;2023-03-01T00:31:51;23.80;;;10.57;;
18610;SDS011;9435;52.122;5.502;2023-03-01T00:34:18;20.48;;;10.15;;
18610;SDS011;9435;52.122;5.502;2023-03-01T00:36:45;22.05;;;10.05;;
18610;SDS011;9435;52.122;5.502;2023-03-01T00:39:15;21.50;;;9.90;;
18610;SDS011;9435;52.122;5.502;2023-03-01T00:41:43;20.65;;;9.50;;
18610;SDS011;9435;52.122;5.502;2023-03-01T00:44:10;25.50;;;10.50;;
18610;SDS011;9435;52.122;5.502;2023-03-01T00:46:39;22.35;;;10.15;;
18610;SDS011;9435;52.122;5.502;2023-03-01T00:49:06;20.67;;;9.57;;
18610;SDS011;9435;52.122;5.502;2023-03-01T00:51:33;22.92;;;10.32;;
18610;SDS011;9435;52.122;5.502;2023-03-01T00:54:01;23.10;;;9.52;;
18610;SDS011;9435;52.122;5.502;2023-03-01T00:56:29;22.52;;;9.85;;
18610;SDS011;9435;52.122;5.502;2023-03-01T00:58:57;22.08;;;10.02;;
18610;SDS011;9435;52.122;5.502;2023-03-01T01:01:25;22.73;;;10.25;;
18610;SDS011;9435;52.122;5.502;2023-03-01T01:03:57;21.00;;;10.30;;
18610;SDS011;9435;52.122;5.502;2023-03-01T01:06:26;21.38;;;10.45;;
18610;SDS011;9435;52.122;5.502;2023-03-01T01:08:54;20.50;;;10.18;;
18610;SDS011;9435;52.122;5.502;2023-03-01T01:11:23;22.98;;;10.65;;
18610;SDS011;9435;52.122;5.502;2023-03-01T01:13:51;25.45;;;11.43;;
18610;SDS011;9435;52.122;5.502;2023-03-01T01:16:20;24.38;;;11.57;;
18610;SDS011;9435;52.122;5.502;2023-03-01T01:18:49;22.38;;;11.02;;
18610;SDS011;9435;52.122;5.502;2023-03-01T01:21:19;22.25;;;10.75;;
18610;SDS011;9435;52.122;5.502;2023-03-01T01:23:48;24.27;;;11.18;;
18610;SDS011;9435;52.122;5.502;2023-03-01T01:26:16;24.98;;;11.25;;
18610;SDS011;9435;52.122;5.502;2023-03-01T01:28:45;23.75;;;11.13;;
18610;SDS011;9435;52.122;5.502;2023-03-01T01:31:12;24.90;;;11.57;;
18610;SDS011;9435;52.122;5.502;2023-03-01T01:33:40;27.98;;;12.52;;
18610;SDS011;9435;52.122;5.502;2023-03-01T01:36:07;25.27;;;11.98;;
18610;SDS011;9435;52.122;5.502;2023-03-01T01:38:37;24.95;;;11.93;;
18610;SDS011;9435;52.122;5.502;2023-03-01T01:41:04;25.40;;;11.90;;
18610;SDS011;9435;52.122;5.502;2023-03-01T01:43:33;24.23;;;12.45;;
18610;SDS011;9435;52.122;5.502;2023-03-01T01:46:03;25.65;;;12.40;;
18610;SDS011;9435;52.122;5.502;2023-03-01T01:48:34;29.88;;;13.38;;
18610;SDS011;9435;52.122;5.502;2023-03-01T01:51:07;26.45;;;13.15;;
18610;SDS011;9435;52.122;5.502;2023-03-01T01:53:39;26.45;;;12.38;;
18610;SDS011;9435;52.122;5.502;2023-03-01T01:56:07;28.95;;;13.55;;
18610;SDS011;9435;52.122;5.502;2023-03-01T01:58:37;30.05;;;13.05;;
18610;SDS011;9435;52.122;5.502;2023-03-01T02:01:05;25.83;;;12.98;;
18610;SDS011;9435;52.122;5.502;2023-03-01T02:03:32;28.92;;;13.45;;
18610;SDS011;9435;52.122;5.502;2023-03-01T02:06:03;29.02;;;13.00;;
18610;SDS011;9435;52.122;5.502;2023-03-01T02:08:35;30.52;;;13.88;;
18610;SDS011;9435;52.122;5.502;2023-03-01T02:11:05;28.02;;;13.65;;
18610;SDS011;9435;52.122;5.502;2023-03-01T02:13:34;25.77;;;12.40;;
18610;SDS011;9435;52.122;5.502;2023-03-01T02:16:02;29.90;;;13.18;;
18610;SDS011;9435;52.122;5.502;2023-03-01T02:18:30;31.80;;;14.00;;
18610;SDS011;9435;52.122;5.502;2023-03-01T02:21:04;26.77;;;12.95;;
18610;SDS011;9435;52.122;5.502;2023-03-01T02:23:40;30.40;;;13.50;;
18610;SDS011;9435;52.122;5.502;2023-03-01T02:26:11;34.90;;;14.32;;
18610;SDS011;9435;52.122;5.502;2023-03-01T02:28:44;29.40;;;13.80;;
18610;SDS011;9435;52.122;5.502;2023-03-01T02:31:14;31.08;;;14.10;;
18610;SDS011;9435;52.122;5.502;2023-03-01T02:34:01;29.75;;;14.07;;
18610;SDS011;9435;52.122;5.502;2023-03-01T02:36:30;26.58;;;12.73;;
18610;SDS011;9435;52.122;5.502;2023-03-01T02:39:01;32.15;;;14.55;;
18610;SDS011;9435;52.122;5.502;2023-03-01T02:41:31;28.90;;;14.00;;
18610;SDS011;9435;52.122;5.502;2023-03-01T02:44:03;30.42;;;13.30;;
18610;SDS011;9435;52.122;5.502;2023-03-01T02:46:30;30.45;;;13.90;;
18610;SDS011;9435;52.122;5.502;2023-03-01T02:48:58;29.08;;;12.75;;
18610;SDS011;9435;52.122;5.502;2023-03-01T02:51:35;26.00;;;12.80;;
18610;SDS011;9435;52.122;5.502;2023-03-01T02:54:12;28.10;;;13.55;;
18610;SDS011;9435;52.122;5.502;2023-03-01T02:56:45;31.83;;;14.43;;
18610;SDS011;9435;52.122;5.502;2023-03-01T02:59:15;32.60;;;15.00;;
18610;SDS011;9435;52.122;5.502;2023-03-01T03:01:44;30.80;;;14.25;;
18610;SDS011;9435;52.122;5.502;2023-03-01T03:04:13;34.47;;;14.32;;
18610;SDS011;9435;52.122;5.502;2023-03-01T03:06:43;28.35;;;14.10;;
18610;SDS011;9435;52.122;5.502;2023-03-01T03:09:10;27.33;;;13.80;;
18610;SDS011;9435;52.122;5.502;2023-03-01T03:11:38;30.60;;;14.45;;
18610;SDS011;9435;52.122;5.502;2023-03-01T03:14:06;28.38;;;13.93;;
18610;SDS011;9435;52.122;5.502;2023-03-01T03:16:40;30.00;;;13.82;;
18610;SDS011;9435;52.122;5.502;2023-03-01T03:19:08;32.53;;;13.75;;
18610;SDS011;9435;52.122;5.502;2023-03-01T03:21:35;31.85;;;13.38;;
18610;SDS011;9435;52.122;5.502;2023-03-01T03:24:02;29.70;;;13.90;;
18610;SDS011;9435;52.122;5.502;2023-03-01T03:26:30;28.10;;;13.82;;
18610;SDS011;9435;52.122;5.502;2023-03-01T03:28:58;28.00;;;13.98;;
18610;SDS011;9435;52.122;5.502;2023-03-01T03:31:25;28.33;;;13.40;;
18610;SDS011;9435;52.122;5.502;2023-03-01T03:33:54;26.50;;;13.40;;
18610;SDS011;9435;52.122;5.502;2023-03-01T03:36:23;28.55;;;12.88;;
18610;SDS011;9435;52.122;5.502;2023-03-01T03:38:50;28.80;;;13.52;;
18610;SDS011;9435;52.122;5.502;2023-03-01T03:41:17;32.17;;;13.52;;
18610;SDS011;9435;52.122;5.502;2023-03-01T03:43:45;28.45;;;12.90;;
18610;SDS011;9435;52.122;5.502;2023-03-01T03:46:12;29.55;;;13.48;;
18610;SDS011;9435;52.122;5.502;2023-03-01T03:48:39;28.95;;;13.43;;
18610;SDS011;9435;52.122;5.502;2023-03-01T03:51:11;26.40;;;12.90;;
18610;SDS011;9435;52.122;5.502;2023-03-01T03:53:39;28.23;;;13.52;;
18610;SDS011;9435;52.122;5.502;2023-03-01T03:56:06;30.63;;;13.50;;
18610;SDS011;9435;52.122;5.502;2023-03-01T03:58:33;28.25;;;13.32;;
18610;SDS011;9435;52.122;5.502;2023-03-01T04:01:00;31.20;;;13.60;;
18610;SDS011;9435;52.122;5.502;2023-03-01T04:03:28;26.55;;;12.40;;
18610;SDS011;9435;52.122;5.502;2023-03-01T04:05:57;30.50;;;13.75;;
18610;SDS011;9435;52.122;5.502;2023-03-01T04:08:26;27.38;;;12.40;;
18610;SDS011;9435;52.122;5.502;2023-03-01T04:10:57;29.30;;;13.23;;
18610;SDS011;9435;52.122;5.502;2023-03-01T04:13:25;28.00;;;13.18;;
18610;SDS011;9435;52.122;5.502;2023-03-01T04:15:53;30.63;;;13.32;;
18610;SDS011;9435;52.122;5.502;2023-03-01T04:18:21;25.50;;;12.20;;
18610;SDS011;9435;52.122;5.502;2023-03-01T04:20:49;25.42;;;12.93;;
18610;SDS011;9435;52.122;5.502;2023-03-01T04:23:20;28.42;;;12.70;;
18610;SDS011;9435;52.122;5.502;2023-03-01T04:25:50;28.73;;;12.57;;
18610;SDS011;9435;52.122;5.502;2023-03-01T04:28:20;25.30;;;12.52;;
18610;SDS011;9435;52.122;5.502;2023-03-01T04:30:49;30.30;;;13.02;;
18610;SDS011;9435;52.122;5.502;2023-03-01T04:33:17;27.48;;;12.88;;
18610;SDS011;9435;52.122;5.502;2023-03-01T04:35:45;27.10;;;12.55;;
18610;SDS011;9435;52.122;5.502;2023-03-01T04:38:14;26.00;;;12.45;;
18610;SDS011;9435;52.122;5.502;2023-03-01T04:40:41;26.52;;;12.30;;
18610;SDS011;9435;52.122;5.502;2023-03-01T04:43:10;28.63;;;12.88;;
18610;SDS011;9435;52.122;5.502;2023-03-01T04:45:39;27.48;;;12.48;;
18610;SDS011;9435;52.122;5.502;2023-03-01T04:48:06;26.38;;;13.07;;
18610;SDS011;9435;52.122;5.502;2023-03-01T04:50:33;25.98;;;12.82;;
18610;SDS011;9435;52.122;5.502;2023-03-01T04:53:01;27.10;;;12.43;;
18610;SDS011;9435;52.122;5.502;2023-03-01T04:55:28;25.75;;;12.77;;
18610;SDS011;9435;52.122;5.502;2023-03-01T04:57:56;26.10;;;12.32;;
18610;SDS011;9435;52.122;5.502;2023-03-01T05:00:25;28.23;;;13.25;;
18610;SDS011;9435;52.122;5.502;2023-03-01T05:02:53;27.40;;;12.25;;
18610;SDS011;9435;52.122;5.502;2023-03-01T05:05:23;28.27;;;12.88;;
18610;SDS011;9435;52.122;5.502;2023-03-01T05:07:55;31.25;;;12.98;;
18610;SDS011;9435;52.122;5.502;2023-03-01T05:10:23;26.30;;;12.48;;
18610;SDS011;9435;52.122;5.502;2023-03-01T05:12:51;28.05;;;12.88;;
18610;SDS011;9435;52.122;5.502;2023-03-01T05:15:18;27.55;;;12.18;;
18610;SDS011;9435;52.122;5.502;2023-03-01T05:17:48;26.23;;;12.82;;
18610;SDS011;9435;52.122;5.502;2023-03-01T05:20:15;30.23;;;12.50;;
18610;SDS011;9435;52.122;5.502;2023-03-01T05:22:42;27.27;;;12.77;;
18610;SDS011;9435;52.122;5.502;2023-03-01T05:25:09;29.40;;;13.73;;
18610;SDS011;9435;52.122;5.502;2023-03-01T05:27:39;31.30;;;13.77;;
18610;SDS011;9435;52.122;5.502;2023-03-01T05:30:06;28.02;;;13.57;;
18610;SDS011;9435;52.122;5.502;2023-03-01T05:32:40;32.65;;;13.32;;
18610;SDS011;9435;52.122;5.502;2023-03-01T05:35:12;29.42;;;13.20;;
18610;SDS011;9435;52.122;5.502;2023-03-01T05:37:41;29.98;;;13.85;;
18610;SDS011;9435;52.122;5.502;2023-03-01T05:40:09;30.20;;;13.80;;
18610;SDS011;9435;52.122;5.502;2023-03-01T05:42:43;29.60;;;13.35;;
18610;SDS011;9435;52.122;5.502;2023-03-01T05:45:11;29.50;;;13.73;;
18610;SDS011;9435;52.122;5.502;2023-03-01T05:47:40;29.30;;;13.27;;
18610;SDS011;9435;52.122;5.502;2023-03-01T05:50:12;29.40;;;12.63;;
18610;SDS011;9435;52.122;5.502;2023-03-01T05:52:44;28.92;;;13.32;;
18610;SDS011;9435;52.122;5.502;2023-03-01T05:55:12;29.45;;;12.95;;
18610;SDS011;9435;52.122;5.502;2023-03-01T05:57:39;28.58;;;13.25;;
18610;SDS011;9435;52.122;5.502;2023-03-01T06:00:07;31.00;;;13.65;;
18610;SDS011;9435;52.122;5.502;2023-03-01T06:02:35;30.85;;;13.10;;
18610;SDS011;9435;52.122;5.502;2023-03-01T06:05:03;28.65;;;13.77;;
18610;SDS011;9435;52.122;5.502;2023-03-01T06:07:32;30.17;;;12.95;;
18610;SDS011;9435;52.122;5.502;2023-03-01T06:10:00;32.22;;;12.95;;
18610;SDS011;9435;52.122;5.502;2023-03-01T06:12:29;30.77;;;13.63;;
18610;SDS011;9435;52.122;5.502;2023-03-01T06:14:57;32.60;;;14.07;;
18610;SDS011;9435;52.122;5.502;2023-03-01T06:17:25;31.90;;;14.07;;
18610;SDS011;9435;52.122;5.502;2023-03-01T06:19:54;32.53;;;14.60;;
18610;SDS011;9435;52.122;5.502;2023-03-01T06:22:22;34.80;;;16.40;;
18610;SDS011;9435;52.122;5.502;2023-03-01T06:24:50;37.30;;;15.63;;
18610;SDS011;9435;52.122;5.502;2023-03-01T06:27:17;31.85;;;14.50;;
18610;SDS011;9435;52.122;5.502;2023-03-01T06:29:44;30.92;;;13.73;;
18610;SDS011;9435;52.122;5.502;2023-03-01T06:32:12;33.70;;;14.90;;
18610;SDS011;9435;52.122;5.502;2023-03-01T06:34:39;30.83;;;14.00;;
18610;SDS011;9435;52.122;5.502;2023-03-01T06:37:07;32.38;;;14.70;;
18610;SDS011;9435;52.122;5.502;2023-03-01T06:39:34;34.45;;;15.00;;
18610;SDS011;9435;52.122;5.502;2023-03-01T06:42:03;31.33;;;14.32;;
18610;SDS011;9435;52.122;5.502;2023-03-01T06:44:30;33.47;;;15.32;;
18610;SDS011;9435;52.122;5.502;2023-03-01T06:46:57;37.35;;;15.25;;
18610;SDS011;9435;52.122;5.502;2023-03-01T06:49:24;32.10;;;14.38;;
18610;SDS011;9435;52.122;5.502;2023-03-01T06:51:52;32.85;;;14.40;;
18610;SDS011;9435;52.122;5.502;2023-03-01T06:54:19;31.85;;;14.10;;
18610;SDS011;9435;52.122;5.502;2023-03-01T06:56:47;30.77;;;14.57;;
18610;SDS011;9435;52.122;5.502;2023-03-01T06:59:16;32.28;;;14.50;;
18610;SDS011;9435;52.122;5.502;2023-03-01T07:01:44;29.23;;;13.73;;
18610;SDS011;9435;52.122;5.502;2023-03-01T07:04:12;31.63;;;14.50;;
18610;SDS011;9435;52.122;5.502;2023-03-01T07:06:40;30.58;;;14.10;;
18610;SDS011;9435;52.122;5.502;2023-03-01T07:09:07;36.83;;;15.35;;
18610;SDS011;9435;52.122;5.502;2023-03-01T07:11:34;31.73;;;13.68;;
18610;SDS011;9435;52.122;5.502;2023-03-01T07:14:01;31.33;;;14.23;;
18610;SDS011;9435;52.122;5.502;2023-03-01T07:16:30;32.10;;;14.70;;
18610;SDS011;9435;52.122;5.502;2023-03-01T07:18:57;31.52;;;14.82;;
18610;SDS011;9435;52.122;5.502;2023-03-01T07:21:24;33.35;;;15.20;;
18610;SDS011;9435;52.122;5.502;2023-03-01T07:23:51;33.35;;;15.48;;
18610;SDS011;9435;52.122;5.502;2023-03-01T07:26:18;35.10;;;15.52;;
18610;SDS011;9435;52.122;5.502;2023-03-01T07:28:45;35.42;;;16.05;;
18610;SDS011;9435;52.122;5.502;2023-03-01T07:31:13;35.85;;;16.00;;
18610;SDS011;9435;52.122;5.502;2023-03-01T07:33:42;39.20;;;16.45;;
18610;SDS011;9435;52.122;5.502;2023-03-01T07:36:09;35.22;;;15.35;;
18610;SDS011;9435;52.122;5.502;2023-03-01T07:38:36;35.92;;;15.65;;
18610;SDS011;9435;52.122;5.502;2023-03-01T07:41:03;41.40;;;16.45;;
18610;SDS011;9435;52.122;5.502;2023-03-01T07:43:30;33.00;;;15.23;;
18610;SDS011;9435;52.122;5.502;2023-03-01T07:45:58;39.15;;;15.30;;
18610;SDS011;9435;52.122;5.502;2023-03-01T07:48:26;39.40;;;16.13;;
18610;SDS011;9435;52.122;5.502;2023-03-01T07:50:55;40.08;;;16.20;;
18610;SDS011;9435;52.122;5.502;2023-03-01T07:53:49;33.78;;;15.38;;
18610;SDS011;9435;52.122;5.502;2023-03-01T07:56:18;37.47;;;15.57;;
18610;SDS011;9435;52.122;5.502;2023-03-01T07:58:47;35.53;;;15.20;;
18610;SDS011;9435;52.122;5.502;2023-03-01T08:01:15;34.95;;;15.60;;
18610;SDS011;9435;52.122;5.502;2023-03-01T08:03:43;34.67;;;15.52;;
18610;SDS011;9435;52.122;5.502;2023-03-01T08:06:12;35.35;;;15.68;;
18610;SDS011;9435;52.122;5.502;2023-03-01T08:08:41;32.38;;;14.65;;
18610;SDS011;9435;52.122;5.502;2023-03-01T08:11:10;35.03;;;14.70;;
18610;SDS011;9435;52.122;5.502;2023-03-01T08:13:38;36.70;;;15.52;;
18610;SDS011;9435;52.122;5.502;2023-03-01T08:16:06;34.63;;;14.32;;
18610;SDS011;9435;52.122;5.502;2023-03-01T08:18:34;31.80;;;14.05;;
18610;SDS011;9435;52.122;5.502;2023-03-01T08:21:02;29.48;;;13.52;;
18610;SDS011;9435;52.122;5.502;2023-03-01T08:23:34;30.77;;;13.55;;
18610;SDS011;9435;52.122;5.502;2023-03-01T08:26:05;27.83;;;13.52;;
18610;SDS011;9435;52.122;5.502;2023-03-01T08:28:33;29.17;;;13.45;;
18610;SDS011;9435;52.122;5.502;2023-03-01T08:31:00;28.67;;;13.40;;
18610;SDS011;9435;52.122;5.502;2023-03-01T08:33:27;29.60;;;13.50;;
18610;SDS011;9435;52.122;5.502;2023-03-01T08:36:01;28.83;;;13.68;;
18610;SDS011;9435;52.122;5.502;2023-03-01T08:38:29;26.73;;;12.52;;
18610;SDS011;9435;52.122;5.502;2023-03-01T08:41:00;29.20;;;13.45;;
18610;SDS011;9435;52.122;5.502;2023-03-01T08:43:27;25.45;;;12.80;;
18610;SDS011;9435;52.122;5.502;2023-03-01T08:45:55;24.58;;;12.27;;
18610;SDS011;9435;52.122;5.502;2023-03-01T08:48:22;26.30;;;11.90;;
18610;SDS011;9435;52.122;5.502;2023-03-01T08:50:49;22.33;;;10.82;;
18610;SDS011;9435;52.122;5.502;2023-03-01T08:53:16;22.42;;;10.60;;
18610;SDS011;9435;52.122;5.502;2023-03-01T08:55:43;22.83;;;11.15;;
18610;SDS011;9435;52.122;5.502;2023-03-01T08:58:11;21.40;;;9.70;;
18610;SDS011;9435;52.122;5.502;2023-03-01T09:00:39;19.60;;;8.82;;
18610;SDS011;9435;52.122;5.502;2023-03-01T09:03:06;19.90;;;9.10;;
18610;SDS011;9435;52.122;5.502;2023-03-01T09:05:34;20.27;;;8.93;;
18610;SDS011;9435;52.122;5.502;2023-03-01T09:08:01;15.43;;;7.80;;
18610;SDS011;9435;52.122;5.502;2023-03-01T09:10:28;21.67;;;8.80;;
18610;SDS011;9435;52.122;5.502;2023-03-01T09:12:56;19.25;;;8.25;;
18610;SDS011;9435;52.122;5.502;2023-03-01T09:15:24;17.85;;;8.20;;
18610;SDS011;9435;52.122;5.502;2023-03-01T09:17:51;19.58;;;8.50;;
18610;SDS011;9435;52.122;5.502;2023-03-01T09:20:18;15.73;;;8.30;;
18610;SDS011;9435;52.122;5.502;2023-03-01T09:22:45;15.32;;;8.18;;
18610;SDS011;9435;52.122;5.502;2023-03-01T09:25:12;18.98;;;8.18;;
18610;SDS011;9435;52.122;5.502;2023-03-01T09:27:39;15.52;;;7.47;;
18610;SDS011;9435;52.122;5.502;2023-03-01T09:30:07;15.48;;;6.78;;
18610;SDS011;9435;52.122;5.502;2023-03-01T09:32:37;14.45;;;6.82;;
18610;SDS011;9435;52.122;5.502;2023-03-01T09:35:08;14.00;;;6.60;;
18610;SDS011;9435;52.122;5.502;2023-03-01T09:37:35;12.23;;;6.20;;
18610;SDS011;9435;52.122;5.502;2023-03-01T09:40:03;13.93;;;6.15;;
18610;SDS011;9435;52.122;5.502;2023-03-01T09:42:33;11.20;;;5.85;;
18610;SDS011;9435;52.122;5.502;2023-03-01T09:45:03;12.82;;;5.93;;
18610;SDS011;9435;52.122;5.502;2023-03-01T09:47:32;13.32;;;6.30;;
18610;SDS011;9435;52.122;5.502;2023-03-01T09:50:04;14.65;;;6.47;;
18610;SDS011;9435;52.122;5.502;2023-03-01T09:52:38;9.73;;;5.45;;
18610;SDS011;9435;52.122;5.502;2023-03-01T09:55:11;12.43;;;6.03;;
18610;SDS011;9435;52.122;5.502;2023-03-01T09:57:41;9.25;;;4.50;;
18610;SDS011;9435;52.122;5.502;2023-03-01T10:00:18;9.52;;;5.00;;
18610;SDS011;9435;52.122;5.502;2023-03-01T10:02:56;10.07;;;5.07;;
18610;SDS011;9435;52.122;5.502;2023-03-01T10:05:36;12.32;;;5.60;;
18610;SDS011;9435;52.122;5.502;2023-03-01T10:11:15;10.00;;;5.10;;
18610;SDS011;9435;52.122;5.502;2023-03-01T10:13:47;10.90;;;5.18;;
18610;SDS011;9435;52.122;5.502;2023-03-01T10:16:21;11.02;;;5.32;;
18610;SDS011;9435;52.122;5.502;2023-03-01T10:18:55;9.93;;;4.22;;
18610;SDS011;9435;52.122;5.502;2023-03-01T10:21:28;10.05;;;3.85;;
18610;SDS011;9435;52.122;5.502;2023-03-01T10:23:57;9.35;;;3.90;;
18610;SDS011;9435;52.122;5.502;2023-03-01T10:26:38;7.72;;;3.63;;
18610;SDS011;9435;52.122;5.502;2023-03-01T10:29:11;9.18;;;3.92;;
18610;SDS011;9435;52.122;5.502;2023-03-01T10:31:40;8.18;;;3.50;;
18610;SDS011;9435;52.122;5.502;2023-03-01T10:34:10;7.10;;;3.17;;
18610;SDS011;9435;52.122;5.502;2023-03-01T10:36:41;7.53;;;3.40;;
18610;SDS011;9435;52.122;5.502;2023-03-01T10:39:15;7.07;;;3.47;;
18610;SDS011;9435;52.122;5.502;2023-03-01T10:41:57;8.18;;;4.07;;
18610;SDS011;9435;52.122;5.502;2023-03-01T10:47:16;8.93;;;3.42;;
18610;SDS011;9435;52.122;5.502;2023-03-01T10:49:59;8.20;;;3.38;;
18610;SDS011;9435;52.122;5.502;2023-03-01T10:52:31;10.10;;;3.63;;
18610;SDS011;9435;52.122;5.502;2023-03-01T10:55:01;6.30;;;3.20;;
18610;SDS011;9435;52.122;5.502;2023-03-01T10:57:39;7.75;;;3.88;;
18610;SDS011;9435;52.122;5.502;2023-03-01T11:00:17;7.13;;;3.50;;
18610;SDS011;9435;52.122;5.502;2023-03-01T11:02:50;6.97;;;3.47;;
18610;SDS011;9435;52.122;5.502;2023-03-01T11:05:29;7.93;;;3.38;;
18610;SDS011;9435;52.122;5.502;2023-03-01T11:08:00;7.88;;;3.40;;
18610;SDS011;9435;52.122;5.502;2023-03-01T11:10:29;6.00;;;2.80;;
18610;SDS011;9435;52.122;5.502;2023-03-01T11:13:07;6.10;;;3.15;;
18610;SDS011;9435;52.122;5.502;2023-03-01T11:15:35;7.90;;;3.33;;
18610;SDS011;9435;52.122;5.502;2023-03-01T11:18:02;7.05;;;2.88;;
18610;SDS011;9435;52.122;5.502;2023-03-01T11:20:30;7.10;;;3.00;;
18610;SDS011;9435;52.122;5.502;2023-03-01T11:23:01;6.50;;;3.42;;
18610;SDS011;9435;52.122;5.502;2023-03-01T11:25:32;9.02;;;3.53;;
18610;SDS011;9435;52.122;5.502;2023-03-01T11:28:03;5.85;;;3.22;;
18610;SDS011;9435;52.122;5.502;2023-03-01T11:30:33;10.05;;;3.63;;
18610;SDS011;9435;52.122;5.502;2023-03-01T11:33:13;7.78;;;3.90;;
18610;SDS011;9435;52.122;5.502;2023-03-01T11:35:46;8.65;;;3.88;;
18610;SDS011;9435;52.122;5.502;2023-03-01T11:38:23;8.45;;;4.00;;
18610;SDS011;9435;52.122;5.502;2023-03-01T11:40:52;9.18;;;4.10;;
18610;SDS011;9435;52.122;5.502;2023-03-01T11:43:28;7.65;;;4.20;;
18610;SDS011;9435;52.122;5.502;2023-03-01T11:49:05;9.02;;;4.28;;
18610;SDS011;9435;52.122;5.502;2023-03-01T11:51:54;8.40;;;3.97;;
18610;SDS011;9435;52.122;5.502;2023-03-01T11:54:31;7.68;;;3.90;;
18610;SDS011;9435;52.122;5.502;2023-03-01T11:57:10;12.45;;;4.45;;
18610;SDS011;9435;52.122;5.502;2023-03-01T11:59:55;9.38;;;4.18;;
18610;SDS011;9435;52.122;5.502;2023-03-01T12:02:43;7.80;;;3.28;;
18610;SDS011;9435;52.122;5.502;2023-03-01T12:08:37;6.00;;;3.25;;
18610;SDS011;9435;52.122;5.502;2023-03-01T12:11:12;7.68;;;3.15;;
18610;SDS011;9435;52.122;5.502;2023-03-01T12:13:59;10.52;;;3.40;;
18610;SDS011;9435;52.122;5.502;2023-03-01T12:16:40;6.88;;;3.50;;
18610;SDS011;9435;52.122;5.502;2023-03-01T12:19:31;6.75;;;3.30;;
18610;SDS011;9435;52.122;5.502;2023-03-01T12:22:09;6.50;;;3.50;;
18610;SDS011;9435;52.122;5.502;2023-03-01T12:25:00;6.80;;;3.60;;
18610;SDS011;9435;52.122;5.502;2023-03-01T12:30:51;6.30;;;3.65;;
18610;SDS011;9435;52.122;5.502;2023-03-01T12:33:43;6.75;;;3.45;;
18610;SDS011;9435;52.122;5.502;2023-03-01T12:36:31;7.72;;;3.55;;
18610;SDS011;9435;52.122;5.502;2023-03-01T12:39:15;11.20;;;3.50;;
18610;SDS011;9435;52.122;5.502;2023-03-01T12:41:55;6.63;;;3.50;;
18610;SDS011;9435;52.122;5.502;2023-03-01T12:44:34;7.65;;;3.55;;
18610;SDS011;9435;52.122;5.502;2023-03-01T12:47:17;7.63;;;3.50;;
18610;SDS011;9435;52.122;5.502;2023-03-01T12:50:01;7.47;;;3.47;;
18610;SDS011;9435;52.122;5.502;2023-03-01T12:52:33;7.10;;;3.60;;
18610;SDS011;9435;52.122;5.502;2023-03-01T12:55:06;10.55;;;3.85;;
18610;SDS011;9435;52.122;5.502;2023-03-01T12:57:45;12.57;;;4.20;;
18610;SDS011;9435;52.122;5.502;2023-03-01T13:00:22;10.02;;;3.67;;
18610;SDS011;9435;52.122;5.502;2023-03-01T13:02:57;8.30;;;3.58;;
18610;SDS011;9435;52.122;5.502;2023-03-01T13:05:34;8.18;;;3.95;;
18610;SDS011;9435;52.122;5.502;2023-03-01T13:08:07;8.18;;;3.78;;
18610;SDS011;9435;52.122;5.502;2023-03-01T13:10:40;5.97;;;3.38;;
18610;SDS011;9435;52.122;5.502;2023-03-01T13:13:13;8.68;;;3.75;;
18610;SDS011;9435;52.122;5.502;2023-03-01T13:15:45;9.32;;;3.90;;
18610;SDS011;9435;52.122;5.502;2023-03-01T13:21:09;6.65;;;3.42;;
18610;SDS011;9435;52.122;5.502;2023-03-01T13:23:37;7.45;;;3.60;;
18610;SDS011;9435;52.122;5.502;2023-03-01T13:26:12;6.53;;;3.50;;
18610;SDS011;9435;52.122;5.502;2023-03-01T13:28:47;6.63;;;3.47;;
18610;SDS011;9435;52.122;5.502;2023-03-01T13:37:21;8.05;;;3.65;;
18610;SDS011;9435;52.122;5.502;2023-03-01T13:39:54;8.20;;;3.50;;
18610;SDS011;9435;52.122;5.502;2023-03-01T13:45:19;8.10;;;3.53;;
18610;SDS011;9435;52.122;5.502;2023-03-01T13:47:50;12.25;;;4.30;;
18610;SDS011;9435;52.122;5.502;2023-03-01T13:50:25;8.73;;;3.90;;
18610;SDS011;9435;52.122;5.502;2023-03-01T13:52:55;6.97;;;3.30;;
18610;SDS011;9435;52.122;5.502;2023-03-01T13:55:26;8.85;;;3.50;;
18610;SDS011;9435;52.122;5.502;2023-03-01T13:57:59;8.20;;;3.75;;
18610;SDS011;9435;52.122;5.502;2023-03-01T14:00:33;8.02;;;3.90;;
18610;SDS011;9435;52.122;5.502;2023-03-01T14:03:03;6.75;;;3.45;;
18610;SDS011;9435;52.122;5.502;2023-03-01T14:05:36;6.05;;;3.58;;
18610;SDS011;9435;52.122;5.502;2023-03-01T14:08:05;8.82;;;3.72;;
18610;SDS011;9435;52.122;5.502;2023-03-01T14:10:52;8.85;;;3.47;;
18610;SDS011;9435;52.122;5.502;2023-03-01T14:13:32;7.10;;;3.40;;
18610;SDS011;9435;52.122;5.502;2023-03-01T14:16:12;7.85;;;3.78;;
18610;SDS011;9435;52.122;5.502;2023-03-01T14:18:51;10.30;;;3.58;;
18610;SDS011;9435;52.122;5.502;2023-03-01T14:21:28;6.68;;;3.58;;
18610;SDS011;9435;52.122;5.502;2023-03-01T14:23:56;7.47;;;3.78;;
18610;SDS011;9435;52.122;5.502;2023-03-01T14:26:24;10.30;;;3.80;;
18610;SDS011;9435;52.122;5.502;2023-03-01T14:28:51;7.13;;;3.80;;
18610;SDS011;9435;52.122;5.502;2023-03-01T14:31:31;7.53;;;3.60;;
18610;SDS011;9435;52.122;5.502;2023-03-01T14:34:02;7.95;;;3.92;;
18610;SDS011;9435;52.122;5.502;2023-03-01T14:36:32;7.63;;;3.30;;
18610;SDS011;9435;52.122;5.502;2023-03-01T14:39:00;8.13;;;3.70;;
18610;SDS011;9435;52.122;5.502;2023-03-01T14:41:32;7.63;;;3.80;;
18610;SDS011;9435;52.122;5.502;2023-03-01T14:44:02;8.38;;;3.55;;
18610;SDS011;9435;52.122;5.502;2023-03-01T14:46:33;7.85;;;3.50;;
18610;SDS011;9435;52.122;5.502;2023-03-01T14:49:03;7.03;;;3.65;;
18610;SDS011;9435;52.122;5.502;2023-03-01T14:51:36;8.23;;;4.13;;
18610;SDS011;9435;52.122;5.502;2023-03-01T14:54:05;8.20;;;3.90;;
18610;SDS011;9435;52.122;5.502;2023-03-01T14:56:46;9.10;;;4.00;;
18610;SDS011;9435;52.122;5.502;2023-03-01T14:59:13;8.85;;;3.95;;
18610;SDS011;9435;52.122;5.502;2023-03-01T15:01:41;9.63;;;4.03;;
18610;SDS011;9435;52.122;5.502;2023-03-01T15:04:11;8.05;;;3.70;;
18610;SDS011;9435;52.122;5.502;2023-03-01T15:06:41;8.68;;;3.80;;
18610;SDS011;9435;52.122;5.502;2023-03-01T15:09:12;8.65;;;3.90;;
18610;SDS011;9435;52.122;5.502;2023-03-01T15:11:42;17.30;;;4.30;;
18610;SDS011;9435;52.122;5.502;2023-03-01T15:17:18;12.73;;;4.28;;
18610;SDS011;9435;52.122;5.502;2023-03-01T15:19:48;7.82;;;3.47;;
18610;SDS011;9435;52.122;5.502;2023-03-01T15:22:16;7.80;;;3.92;;
18610;SDS011;9435;52.122;5.502;2023-03-01T15:24:46;6.90;;;3.47;;
18610;SDS011;9435;52.122;5.502;2023-03-01T15:27:14;12.68;;;3.92;;
18610;SDS011;9435;52.122;5.502;2023-03-01T15:29:48;9.27;;;4.05;;
18610;SDS011;9435;52.122;5.502;2023-03-01T15:32:27;7.97;;;3.63;;
18610;SDS011;9435;52.122;5.502;2023-03-01T15:34:56;8.07;;;3.63;;